Airfield :
LOGIN :

Register | Disclaimer

   EN    FR    IT 

 










Legend :    VFR   Marginal VFR   IFR   Intensive IFR   Very Intensive IFR
Visi :
Ceiling :
>= 8 km
>= 3000ft
5 to 8 km
1000 to 3000 ft
1500m to 5 km
500 to 1000 ft
800 to 1500m
200 to 500 ft
< 800m
< 200 ft
Symbols :   Thunderstorms  Fog  Heavy snow  Heavy precipitations  Wind > 20 kt
SIGMETs :     Misc.  Thunderstorms  Icing  Turbulence  Mountain Waves  Volcanic Ashes







- Airport Elevation : 56 ft
- IATA code : TRD


ENVA - Trondheim , Værnes

CURRENT METAR :
  • 190220Z 08005KT CAVOK 06/M01 Q0991 RMK WIND 670FT 12006KT

EXPIRED METARs :
  • 190150Z 08004KT CAVOK 05/M01 Q0992 RMK WIND 670FT VRB03KT
  • 190120Z 07004KT 020V090 CAVOK 06/M02 Q0992 RMK WIND 670FT VRB03KT

TAF TAF ENVA
Valid from the 19 at 00:00 until the 20 at 00:00 UTC


1900/1924 07007KT CAVOK
PROB30
TEMPO 1913/1920 SHRA BKN012 FEW020CB
No reported NOTAMs for that airfield.



MET'MAP, your aeronautical weather chart ! - Copyright ORBIFLY December 2007 - Disclaimer

ORBIFLY MET'MAP TEAM :

Programming & Development : Alexandra Zaïnal
Concept & Development : Baudouin d'Aumeries
Co-Development & Prog : Marc-Olivier Méhu
Technical & hardware support : Manuel Goepfert

Contact : metmap@orbifly.com




SOURCES & CREDITS :

   NOAA